Aberdeen Regional Airport Aberdeen US
ICAO: KABR
IATA: ABR
Category: Medium
Scheduled Services: Yes

Elevation: 1302 ft
TransAlt. 18000 ft.

Airport Communications:
ASOS:125.875
MINNEAPOLIS CNTR:120.6
CTAF:122.7
HURON RDO:122.4
UNICOM:122.95

KABR Zoom In..

Runways:

(A) RW 13 length 6901 ft width 100 ft
---- / hdg 128

(B) RW 17 length 5500 ft width 100 ft
---- / hdg 173

(C) RW 31 length 6901 ft width 100 ft
ILS 109.90 / hdg 308

(D) RW 35 length 5500 ft width 100 ft
---- / hdg 353

Location; KABR
Day. 19 / Time. 20.53 Zulu
* Altimeter: 29.80
* Temperature: 22° c. 71.6°f.
* Wind from: 350° Speed 19 kn with Gusts up to 24 kn.
Dewpoint: 16° c.
Visibility: 10 Statute Miles.
Clouds: Clear (automated report).

KABR 192053Z AUTO 35019G24KT 10SM CLR 22/16 A2980 RMK AO2 PK WND 36030/2013 RAE1957 SLP087 P0000 60004 T02170161 51016


Wind From 350°
Speed 19 kn.

 
 
jpsmedia.com for Web Design worldairports.se 2018   terms of use